sensor_id;sensor_type;location;lat;lon;timestamp;temperature;humidity
6672;DHT22;3372;48.690;12.362;2022-12-07T00:02:15;6.40;64.70
6672;DHT22;3372;48.690;12.362;2022-12-07T00:04:41;6.50;64.10
6672;DHT22;3372;48.690;12.362;2022-12-07T00:07:07;6.40;63.70
6672;DHT22;3372;48.690;12.362;2022-12-07T00:09:32;6.30;64.60
6672;DHT22;3372;48.690;12.362;2022-12-07T00:11:58;6.40;64.10
6672;DHT22;3372;48.690;12.362;2022-12-07T00:14:23;6.40;64.70
6672;DHT22;3372;48.690;12.362;2022-12-07T00:16:50;6.30;64.50
6672;DHT22;3372;48.690;12.362;2022-12-07T00:19:16;6.80;64.60
6672;DHT22;3372;48.690;12.362;2022-12-07T00:21:42;6.50;64.10
6672;DHT22;3372;48.690;12.362;2022-12-07T00:24:09;6.50;63.90
6672;DHT22;3372;48.690;12.362;2022-12-07T00:26:39;6.70;63.80
6672;DHT22;3372;48.690;12.362;2022-12-07T00:29:16;6.60;63.50
6672;DHT22;3372;48.690;12.362;2022-12-07T00:31:42;6.60;63.50
6672;DHT22;3372;48.690;12.362;2022-12-07T00:34:13;6.40;61.80
6672;DHT22;3372;48.690;12.362;2022-12-07T00:36:38;6.50;63.30
6672;DHT22;3372;48.690;12.362;2022-12-07T00:39:04;6.40;63.00
6672;DHT22;3372;48.690;12.362;2022-12-07T00:41:30;6.30;63.30
6672;DHT22;3372;48.690;12.362;2022-12-07T00:43:56;6.40;62.40
6672;DHT22;3372;48.690;12.362;2022-12-07T00:46:23;6.30;62.80
6672;DHT22;3372;48.690;12.362;2022-12-07T00:48:49;6.50;63.10
6672;DHT22;3372;48.690;12.362;2022-12-07T00:51:17;6.50;63.50
6672;DHT22;3372;48.690;12.362;2022-12-07T00:53:43;6.60;63.20
6672;DHT22;3372;48.690;12.362;2022-12-07T00:58:41;6.30;63.70
6672;DHT22;3372;48.690;12.362;2022-12-07T01:01:08;6.10;62.90
6672;DHT22;3372;48.690;12.362;2022-12-07T01:03:35;6.20;64.20
6672;DHT22;3372;48.690;12.362;2022-12-07T01:06:00;6.40;62.80
6672;DHT22;3372;48.690;12.362;2022-12-07T01:08:27;6.30;63.80
6672;DHT22;3372;48.690;12.362;2022-12-07T01:11:04;6.30;63.50
6672;DHT22;3372;48.690;12.362;2022-12-07T01:13:31;6.40;63.60
6672;DHT22;3372;48.690;12.362;2022-12-07T01:15:59;6.30;63.20
6672;DHT22;3372;48.690;12.362;2022-12-07T01:18:26;6.40;62.90
6672;DHT22;3372;48.690;12.362;2022-12-07T01:21:06;6.50;63.20
6672;DHT22;3372;48.690;12.362;2022-12-07T01:23:33;6.40;63.10
6672;DHT22;3372;48.690;12.362;2022-12-07T01:26:02;6.30;63.20
6672;DHT22;3372;48.690;12.362;2022-12-07T01:28:28;6.30;62.80
6672;DHT22;3372;48.690;12.362;2022-12-07T01:31:14;6.40;62.60
6672;DHT22;3372;48.690;12.362;2022-12-07T01:33:41;6.50;61.00
6672;DHT22;3372;48.690;12.362;2022-12-07T01:38:37;6.20;62.40
6672;DHT22;3372;48.690;12.362;2022-12-07T01:41:03;6.20;62.70
6672;DHT22;3372;48.690;12.362;2022-12-07T01:43:31;6.10;62.40
6672;DHT22;3372;48.690;12.362;2022-12-07T01:45:57;6.30;62.30
6672;DHT22;3372;48.690;12.362;2022-12-07T01:48:26;6.20;62.10
6672;DHT22;3372;48.690;12.362;2022-12-07T01:50:55;6.40;62.20
6672;DHT22;3372;48.690;12.362;2022-12-07T01:53:25;6.20;62.10
6672;DHT22;3372;48.690;12.362;2022-12-07T01:55:53;6.30;61.70
6672;DHT22;3372;48.690;12.362;2022-12-07T01:58:20;6.20;61.50
6672;DHT22;3372;48.690;12.362;2022-12-07T02:00:46;6.30;61.50
6672;DHT22;3372;48.690;12.362;2022-12-07T02:03:22;6.30;62.40
6672;DHT22;3372;48.690;12.362;2022-12-07T02:05:50;5.90;61.30
6672;DHT22;3372;48.690;12.362;2022-12-07T02:08:16;6.10;62.70
6672;DHT22;3372;48.690;12.362;2022-12-07T02:10:42;6.10;62.40
6672;DHT22;3372;48.690;12.362;2022-12-07T02:13:18;6.10;62.10
6672;DHT22;3372;48.690;12.362;2022-12-07T02:16:15;6.20;62.30
6672;DHT22;3372;48.690;12.362;2022-12-07T02:24:40;6.20;62.50
6672;DHT22;3372;48.690;12.362;2022-12-07T02:27:21;6.20;62.00
6672;DHT22;3372;48.690;12.362;2022-12-07T02:38:43;6.20;62.50
6672;DHT22;3372;48.690;12.362;2022-12-07T02:40:57;6.00;62.20
6672;DHT22;3372;48.690;12.362;2022-12-07T02:43:32;6.00;62.00
6672;DHT22;3372;48.690;12.362;2022-12-07T02:46:06;5.60;61.80
6672;DHT22;3372;48.690;12.362;2022-12-07T02:48:33;5.90;62.60
6672;DHT22;3372;48.690;12.362;2022-12-07T02:50:59;6.00;61.70
6672;DHT22;3372;48.690;12.362;2022-12-07T02:53:36;6.00;62.70
6672;DHT22;3372;48.690;12.362;2022-12-07T02:56:38;6.10;62.10
6672;DHT22;3372;48.690;12.362;2022-12-07T03:13:03;5.90;62.30
6672;DHT22;3372;48.690;12.362;2022-12-07T03:18:35;6.10;62.90
6672;DHT22;3372;48.690;12.362;2022-12-07T03:21:06;6.10;62.10
6672;DHT22;3372;48.690;12.362;2022-12-07T03:23:35;5.90;62.10
6672;DHT22;3372;48.690;12.362;2022-12-07T03:26:03;6.00;63.20
6672;DHT22;3372;48.690;12.362;2022-12-07T03:28:36;5.80;62.50
6672;DHT22;3372;48.690;12.362;2022-12-07T03:31:29;6.00;63.20
6672;DHT22;3372;48.690;12.362;2022-12-07T03:34:11;6.00;62.40
6672;DHT22;3372;48.690;12.362;2022-12-07T03:36:50;5.80;62.60
6672;DHT22;3372;48.690;12.362;2022-12-07T03:39:39;5.90;62.60
6672;DHT22;3372;48.690;12.362;2022-12-07T03:42:07;6.00;62.00
6672;DHT22;3372;48.690;12.362;2022-12-07T03:44:34;5.90;62.70
6672;DHT22;3372;48.690;12.362;2022-12-07T03:47:11;6.10;62.70
6672;DHT22;3372;48.690;12.362;2022-12-07T03:54:58;6.10;62.40
6672;DHT22;3372;48.690;12.362;2022-12-07T03:57:26;6.00;61.50
6672;DHT22;3372;48.690;12.362;2022-12-07T03:59:55;5.90;61.80
6672;DHT22;3372;48.690;12.362;2022-12-07T04:02:23;5.60;61.20
6672;DHT22;3372;48.690;12.362;2022-12-07T04:04:49;6.00;62.60
6672;DHT22;3372;48.690;12.362;2022-12-07T04:07:15;5.90;62.40
6672;DHT22;3372;48.690;12.362;2022-12-07T04:09:40;5.80;61.20
6672;DHT22;3372;48.690;12.362;2022-12-07T04:12:06;5.80;62.60
6672;DHT22;3372;48.690;12.362;2022-12-07T04:14:32;5.90;61.50
6672;DHT22;3372;48.690;12.362;2022-12-07T04:16:58;6.00;62.70
6672;DHT22;3372;48.690;12.362;2022-12-07T04:19:29;5.90;62.60
6672;DHT22;3372;48.690;12.362;2022-12-07T04:21:56;5.90;62.40
6672;DHT22;3372;48.690;12.362;2022-12-07T04:24:22;5.90;61.90
6672;DHT22;3372;48.690;12.362;2022-12-07T04:26:48;5.90;62.30
6672;DHT22;3372;48.690;12.362;2022-12-07T04:29:15;5.60;60.60
6672;DHT22;3372;48.690;12.362;2022-12-07T04:31:41;5.70;63.20
6672;DHT22;3372;48.690;12.362;2022-12-07T04:34:07;5.90;62.90
6672;DHT22;3372;48.690;12.362;2022-12-07T04:36:33;6.00;62.80
6672;DHT22;3372;48.690;12.362;2022-12-07T04:38:59;5.90;62.60
6672;DHT22;3372;48.690;12.362;2022-12-07T04:41:25;5.70;62.20
6672;DHT22;3372;48.690;12.362;2022-12-07T04:43:55;5.80;62.60
6672;DHT22;3372;48.690;12.362;2022-12-07T04:46:22;6.10;62.50
6672;DHT22;3372;48.690;12.362;2022-12-07T04:48:49;5.80;61.80
6672;DHT22;3372;48.690;12.362;2022-12-07T04:51:18;5.90;61.90
6672;DHT22;3372;48.690;12.362;2022-12-07T04:53:44;5.90;60.80
6672;DHT22;3372;48.690;12.362;2022-12-07T04:56:10;5.80;61.00
6672;DHT22;3372;48.690;12.362;2022-12-07T04:58:35;5.80;60.80
6672;DHT22;3372;48.690;12.362;2022-12-07T05:01:01;5.90;61.50
6672;DHT22;3372;48.690;12.362;2022-12-07T05:03:26;5.90;61.60
6672;DHT22;3372;48.690;12.362;2022-12-07T05:05:52;6.00;61.50
6672;DHT22;3372;48.690;12.362;2022-12-07T05:08:17;6.00;61.50
6672;DHT22;3372;48.690;12.362;2022-12-07T05:10:43;5.80;61.60
6672;DHT22;3372;48.690;12.362;2022-12-07T05:13:08;5.90;61.50
6672;DHT22;3372;48.690;12.362;2022-12-07T05:15:34;6.10;61.00
6672;DHT22;3372;48.690;12.362;2022-12-07T05:18:00;5.70;60.30
6672;DHT22;3372;48.690;12.362;2022-12-07T05:20:25;5.90;61.30
6672;DHT22;3372;48.690;12.362;2022-12-07T05:22:51;6.00;62.00
6672;DHT22;3372;48.690;12.362;2022-12-07T05:25:16;6.10;61.30
6672;DHT22;3372;48.690;12.362;2022-12-07T05:27:42;5.80;61.00
6672;DHT22;3372;48.690;12.362;2022-12-07T05:30:08;5.70;60.90
6672;DHT22;3372;48.690;12.362;2022-12-07T05:32:33;5.90;60.90
6672;DHT22;3372;48.690;12.362;2022-12-07T05:34:59;5.90;60.60
6672;DHT22;3372;48.690;12.362;2022-12-07T05:37:25;5.80;59.00
6672;DHT22;3372;48.690;12.362;2022-12-07T05:39:50;5.60;60.20
6672;DHT22;3372;48.690;12.362;2022-12-07T05:42:16;5.80;60.20
6672;DHT22;3372;48.690;12.362;2022-12-07T05:44:45;5.90;60.20
6672;DHT22;3372;48.690;12.362;2022-12-07T05:47:12;5.60;59.60
6672;DHT22;3372;48.690;12.362;2022-12-07T05:49:38;5.50;60.20
6672;DHT22;3372;48.690;12.362;2022-12-07T05:52:04;5.60;60.00
6672;DHT22;3372;48.690;12.362;2022-12-07T05:54:30;5.70;60.70
6672;DHT22;3372;48.690;12.362;2022-12-07T05:56:55;5.80;60.60
6672;DHT22;3372;48.690;12.362;2022-12-07T05:59:21;5.70;60.10
6672;DHT22;3372;48.690;12.362;2022-12-07T06:01:52;5.80;60.90
6672;DHT22;3372;48.690;12.362;2022-12-07T06:04:18;5.50;59.50
6672;DHT22;3372;48.690;12.362;2022-12-07T06:06:44;5.70;59.80
6672;DHT22;3372;48.690;12.362;2022-12-07T06:09:10;5.70;60.20
6672;DHT22;3372;48.690;12.362;2022-12-07T06:11:38;5.70;59.70
6672;DHT22;3372;48.690;12.362;2022-12-07T06:14:22;5.50;59.70
6672;DHT22;3372;48.690;12.362;2022-12-07T06:16:47;5.30;60.20
6672;DHT22;3372;48.690;12.362;2022-12-07T06:19:13;5.70;59.70
6672;DHT22;3372;48.690;12.362;2022-12-07T06:21:39;5.60;60.00
6672;DHT22;3372;48.690;12.362;2022-12-07T06:24:05;5.70;59.50
6672;DHT22;3372;48.690;12.362;2022-12-07T06:26:31;5.60;59.50
6672;DHT22;3372;48.690;12.362;2022-12-07T06:28:56;5.50;57.80
6672;DHT22;3372;48.690;12.362;2022-12-07T06:31:22;5.60;58.60
6672;DHT22;3372;48.690;12.362;2022-12-07T06:33:47;5.40;58.30
6672;DHT22;3372;48.690;12.362;2022-12-07T06:36:13;5.40;57.90
6672;DHT22;3372;48.690;12.362;2022-12-07T06:38:39;5.60;58.30
6672;DHT22;3372;48.690;12.362;2022-12-07T06:41:06;5.40;58.10
6672;DHT22;3372;48.690;12.362;2022-12-07T06:43:32;5.40;57.70
6672;DHT22;3372;48.690;12.362;2022-12-07T06:45:58;5.40;57.30
6672;DHT22;3372;48.690;12.362;2022-12-07T06:48:24;5.30;57.80
6672;DHT22;3372;48.690;12.362;2022-12-07T06:50:49;5.30;58.00
6672;DHT22;3372;48.690;12.362;2022-12-07T06:53:15;5.20;57.00
6672;DHT22;3372;48.690;12.362;2022-12-07T06:55:42;5.30;57.90
6672;DHT22;3372;48.690;12.362;2022-12-07T06:58:07;5.60;57.40
6672;DHT22;3372;48.690;12.362;2022-12-07T07:00:33;5.30;57.80
6672;DHT22;3372;48.690;12.362;2022-12-07T07:03:00;5.40;57.60
6672;DHT22;3372;48.690;12.362;2022-12-07T07:05:26;5.20;57.70
6672;DHT22;3372;48.690;12.362;2022-12-07T07:07:51;5.00;57.40
6672;DHT22;3372;48.690;12.362;2022-12-07T07:10:17;5.20;58.90
6672;DHT22;3372;48.690;12.362;2022-12-07T07:12:43;5.00;58.30
6672;DHT22;3372;48.690;12.362;2022-12-07T07:15:09;5.10;59.60
6672;DHT22;3372;48.690;12.362;2022-12-07T07:17:35;5.00;58.50
6672;DHT22;3372;48.690;12.362;2022-12-07T07:20:00;5.20;57.90
6672;DHT22;3372;48.690;12.362;2022-12-07T07:22:26;5.10;58.70
6672;DHT22;3372;48.690;12.362;2022-12-07T07:24:51;5.30;58.70
6672;DHT22;3372;48.690;12.362;2022-12-07T07:27:17;5.20;57.80
6672;DHT22;3372;48.690;12.362;2022-12-07T07:29:43;5.10;57.30
6672;DHT22;3372;48.690;12.362;2022-12-07T07:32:08;5.30;57.90
6672;DHT22;3372;48.690;12.362;2022-12-07T07:34:34;5.10;57.80
6672;DHT22;3372;48.690;12.362;2022-12-07T07:37:00;5.20;57.60
6672;DHT22;3372;48.690;12.362;2022-12-07T07:39:26;5.10;57.70
6672;DHT22;3372;48.690;12.362;2022-12-07T07:41:51;5.10;58.40
6672;DHT22;3372;48.690;12.362;2022-12-07T07:44:17;5.10;58.20
6672;DHT22;3372;48.690;12.362;2022-12-07T07:46:42;5.10;58.30
6672;DHT22;3372;48.690;12.362;2022-12-07T07:49:09;5.20;58.80
6672;DHT22;3372;48.690;12.362;2022-12-07T07:51:35;5.30;58.60
6672;DHT22;3372;48.690;12.362;2022-12-07T07:54:01;5.20;58.00
6672;DHT22;3372;48.690;12.362;2022-12-07T07:56:27;5.40;58.50
6672;DHT22;3372;48.690;12.362;2022-12-07T07:58:53;5.50;58.30
6672;DHT22;3372;48.690;12.362;2022-12-07T08:01:19;5.40;57.90
6672;DHT22;3372;48.690;12.362;2022-12-07T08:03:46;5.30;58.10
6672;DHT22;3372;48.690;12.362;2022-12-07T08:06:12;5.40;58.60
6672;DHT22;3372;48.690;12.362;2022-12-07T08:08:37;5.60;58.60
6672;DHT22;3372;48.690;12.362;2022-12-07T08:11:06;5.30;58.40
6672;DHT22;3372;48.690;12.362;2022-12-07T08:13:32;5.30;58.80
6672;DHT22;3372;48.690;12.362;2022-12-07T08:15:58;5.30;58.90
6672;DHT22;3372;48.690;12.362;2022-12-07T08:18:28;5.40;59.00
6672;DHT22;3372;48.690;12.362;2022-12-07T08:21:01;5.40;59.50
6672;DHT22;3372;48.690;12.362;2022-12-07T08:23:27;5.30;59.30
6672;DHT22;3372;48.690;12.362;2022-12-07T08:25:53;5.20;58.80
6672;DHT22;3372;48.690;12.362;2022-12-07T08:28:18;5.30;59.10
6672;DHT22;3372;48.690;12.362;2022-12-07T08:30:44;5.40;58.40
6672;DHT22;3372;48.690;12.362;2022-12-07T08:33:10;5.30;59.40
6672;DHT22;3372;48.690;12.362;2022-12-07T08:35:37;5.50;59.40
6672;DHT22;3372;48.690;12.362;2022-12-07T08:38:03;5.50;59.90
6672;DHT22;3372;48.690;12.362;2022-12-07T08:40:29;5.30;59.10
6672;DHT22;3372;48.690;12.362;2022-12-07T08:42:57;5.20;59.00
6672;DHT22;3372;48.690;12.362;2022-12-07T08:45:23;5.40;59.10
6672;DHT22;3372;48.690;12.362;2022-12-07T08:47:58;5.20;58.80
6672;DHT22;3372;48.690;12.362;2022-12-07T08:50:25;5.00;59.50
6672;DHT22;3372;48.690;12.362;2022-12-07T08:52:52;5.30;59.60
6672;DHT22;3372;48.690;12.362;2022-12-07T08:55:19;5.50;59.90
6672;DHT22;3372;48.690;12.362;2022-12-07T08:57:45;5.50;59.60
6672;DHT22;3372;48.690;12.362;2022-12-07T09:00:12;5.50;59.00
6672;DHT22;3372;48.690;12.362;2022-12-07T09:02:38;5.70;59.80
6672;DHT22;3372;48.690;12.362;2022-12-07T09:05:04;5.60;58.10
6672;DHT22;3372;48.690;12.362;2022-12-07T09:07:30;5.90;59.00
6672;DHT22;3372;48.690;12.362;2022-12-07T09:09:58;5.80;58.60
6672;DHT22;3372;48.690;12.362;2022-12-07T09:12:23;6.10;58.90
6672;DHT22;3372;48.690;12.362;2022-12-07T09:14:49;6.20;58.00
6672;DHT22;3372;48.690;12.362;2022-12-07T09:17:15;6.20;56.60
6672;DHT22;3372;48.690;12.362;2022-12-07T09:19:40;6.20;56.70
6672;DHT22;3372;48.690;12.362;2022-12-07T09:22:07;6.00;54.60
6672;DHT22;3372;48.690;12.362;2022-12-07T09:24:33;6.10;56.40
6672;DHT22;3372;48.690;12.362;2022-12-07T09:27:00;6.00;56.10
6672;DHT22;3372;48.690;12.362;2022-12-07T09:29:26;6.10;55.20
6672;DHT22;3372;48.690;12.362;2022-12-07T09:31:52;6.30;57.20
6672;DHT22;3372;48.690;12.362;2022-12-07T09:34:18;6.30;56.50
6672;DHT22;3372;48.690;12.362;2022-12-07T09:36:44;6.40;56.30
6672;DHT22;3372;48.690;12.362;2022-12-07T09:39:10;6.60;56.20
6672;DHT22;3372;48.690;12.362;2022-12-07T09:41:41;6.30;53.70
6672;DHT22;3372;48.690;12.362;2022-12-07T09:44:12;6.40;51.90
6672;DHT22;3372;48.690;12.362;2022-12-07T09:46:40;6.60;53.50
6672;DHT22;3372;48.690;12.362;2022-12-07T09:49:12;6.50;52.10
6672;DHT22;3372;48.690;12.362;2022-12-07T09:51:39;6.50;48.90
6672;DHT22;3372;48.690;12.362;2022-12-07T09:54:05;6.60;49.20
6672;DHT22;3372;48.690;12.362;2022-12-07T09:56:30;6.50;48.60
6672;DHT22;3372;48.690;12.362;2022-12-07T09:59:01;6.60;48.20
6672;DHT22;3372;48.690;12.362;2022-12-07T10:01:33;6.70;49.40
6672;DHT22;3372;48.690;12.362;2022-12-07T10:06:35;6.80;48.30
6672;DHT22;3372;48.690;12.362;2022-12-07T10:09:00;6.70;47.70
6672;DHT22;3372;48.690;12.362;2022-12-07T10:11:26;7.00;47.80
6672;DHT22;3372;48.690;12.362;2022-12-07T10:13:52;6.90;47.70
6672;DHT22;3372;48.690;12.362;2022-12-07T10:16:39;6.80;46.60
6672;DHT22;3372;48.690;12.362;2022-12-07T10:19:32;7.00;47.10
6672;DHT22;3372;48.690;12.362;2022-12-07T10:22:07;7.00;45.00
6672;DHT22;3372;48.690;12.362;2022-12-07T10:24:34;7.00;46.50
6672;DHT22;3372;48.690;12.362;2022-12-07T10:27:00;7.20;44.30
6672;DHT22;3372;48.690;12.362;2022-12-07T10:29:30;7.30;44.10
6672;DHT22;3372;48.690;12.362;2022-12-07T10:32:00;7.20;43.70
6672;DHT22;3372;48.690;12.362;2022-12-07T10:34:36;7.20;43.50
6672;DHT22;3372;48.690;12.362;2022-12-07T10:44:49;7.30;42.00
6672;DHT22;3372;48.690;12.362;2022-12-07T11:01:20;7.40;42.60
6672;DHT22;3372;48.690;12.362;2022-12-07T11:17:56;7.30;44.10
6672;DHT22;3372;48.690;12.362;2022-12-07T11:20:37;7.50;43.90
6672;DHT22;3372;48.690;12.362;2022-12-07T11:28:44;7.30;43.90
6672;DHT22;3372;48.690;12.362;2022-12-07T11:31:18;7.20;44.20
6672;DHT22;3372;48.690;12.362;2022-12-07T11:34:15;7.30;45.20
6672;DHT22;3372;48.690;12.362;2022-12-07T11:36:49;7.20;44.40
6672;DHT22;3372;48.690;12.362;2022-12-07T11:41:51;7.30;45.60
6672;DHT22;3372;48.690;12.362;2022-12-07T11:49:51;7.20;46.90
6672;DHT22;3372;48.690;12.362;2022-12-07T11:52:32;7.30;46.10
6672;DHT22;3372;48.690;12.362;2022-12-07T11:55:02;7.30;45.60
6672;DHT22;3372;48.690;12.362;2022-12-07T11:57:37;7.30;45.90
6672;DHT22;3372;48.690;12.362;2022-12-07T12:00:13;7.30;46.70
6672;DHT22;3372;48.690;12.362;2022-12-07T12:02:59;6.90;46.60
6672;DHT22;3372;48.690;12.362;2022-12-07T12:05:27;7.20;44.70
6672;DHT22;3372;48.690;12.362;2022-12-07T12:08:16;7.30;41.90
6672;DHT22;3372;48.690;12.362;2022-12-07T12:10:57;7.20;39.30
6672;DHT22;3372;48.690;12.362;2022-12-07T12:16:21;7.20;42.00
6672;DHT22;3372;48.690;12.362;2022-12-07T12:19:25;7.20;38.10
6672;DHT22;3372;48.690;12.362;2022-12-07T12:22:19;7.30;40.50
6672;DHT22;3372;48.690;12.362;2022-12-07T12:24:48;7.30;38.30
6672;DHT22;3372;48.690;12.362;2022-12-07T12:27:36;7.20;37.70
6672;DHT22;3372;48.690;12.362;2022-12-07T12:30:06;7.30;39.40
6672;DHT22;3372;48.690;12.362;2022-12-07T12:37:47;7.40;39.00
6672;DHT22;3372;48.690;12.362;2022-12-07T12:48:00;7.20;36.90
6672;DHT22;3372;48.690;12.362;2022-12-07T12:50:34;7.30;38.30
6672;DHT22;3372;48.690;12.362;2022-12-07T12:53:12;7.30;39.30
6672;DHT22;3372;48.690;12.362;2022-12-07T12:55:52;7.30;40.00
6672;DHT22;3372;48.690;12.362;2022-12-07T12:58:35;7.10;38.90
6672;DHT22;3372;48.690;12.362;2022-12-07T13:01:39;7.20;39.70
6672;DHT22;3372;48.690;12.362;2022-12-07T13:15:36;7.20;37.30
6672;DHT22;3372;48.690;12.362;2022-12-07T13:20:54;7.10;38.50
6672;DHT22;3372;48.690;12.362;2022-12-07T13:24:09;7.10;38.30
6672;DHT22;3372;48.690;12.362;2022-12-07T13:29:13;7.10;38.80
6672;DHT22;3372;48.690;12.362;2022-12-07T13:31:42;7.00;37.20
6672;DHT22;3372;48.690;12.362;2022-12-07T13:36:52;7.00;39.10
6672;DHT22;3372;48.690;12.362;2022-12-07T13:39:20;7.00;39.30
6672;DHT22;3372;48.690;12.362;2022-12-07T13:41:56;6.90;39.80
6672;DHT22;3372;48.690;12.362;2022-12-07T13:44:24;7.00;39.60
6672;DHT22;3372;48.690;12.362;2022-12-07T13:49:23;7.10;37.40
6672;DHT22;3372;48.690;12.362;2022-12-07T13:51:49;6.80;36.80
6672;DHT22;3372;48.690;12.362;2022-12-07T13:54:18;6.90;39.30
6672;DHT22;3372;48.690;12.362;2022-12-07T13:56:44;7.00;39.30
6672;DHT22;3372;48.690;12.362;2022-12-07T13:59:19;6.90;39.80
6672;DHT22;3372;48.690;12.362;2022-12-07T14:01:47;7.10;39.70
6672;DHT22;3372;48.690;12.362;2022-12-07T14:06:53;6.80;39.40
6672;DHT22;3372;48.690;12.362;2022-12-07T14:09:25;6.90;40.90
6672;DHT22;3372;48.690;12.362;2022-12-07T14:11:53;6.90;40.60
6672;DHT22;3372;48.690;12.362;2022-12-07T14:14:26;6.90;39.40
6672;DHT22;3372;48.690;12.362;2022-12-07T14:24:48;7.00;40.70
6672;DHT22;3372;48.690;12.362;2022-12-07T14:27:22;7.00;41.10
6672;DHT22;3372;48.690;12.362;2022-12-07T14:29:51;6.90;40.60
6672;DHT22;3372;48.690;12.362;2022-12-07T14:32:27;6.80;40.60
6672;DHT22;3372;48.690;12.362;2022-12-07T14:35:13;7.20;41.00
6672;DHT22;3372;48.690;12.362;2022-12-07T14:37:40;6.90;40.70
6672;DHT22;3372;48.690;12.362;2022-12-07T14:40:07;6.90;41.70
6672;DHT22;3372;48.690;12.362;2022-12-07T14:42:34;7.00;40.90
6672;DHT22;3372;48.690;12.362;2022-12-07T14:45:00;6.70;41.30
6672;DHT22;3372;48.690;12.362;2022-12-07T14:47:26;6.70;40.80
6672;DHT22;3372;48.690;12.362;2022-12-07T14:49:52;6.80;41.10
6672;DHT22;3372;48.690;12.362;2022-12-07T14:52:26;6.80;41.80
6672;DHT22;3372;48.690;12.362;2022-12-07T14:54:53;6.70;42.10
6672;DHT22;3372;48.690;12.362;2022-12-07T14:57:19;6.90;41.70
6672;DHT22;3372;48.690;12.362;2022-12-07T14:59:44;7.00;41.00
6672;DHT22;3372;48.690;12.362;2022-12-07T15:02:14;7.10;41.80
6672;DHT22;3372;48.690;12.362;2022-12-07T15:04:40;6.80;41.30
6672;DHT22;3372;48.690;12.362;2022-12-07T15:07:11;6.90;41.40
6672;DHT22;3372;48.690;12.362;2022-12-07T15:09:39;7.10;42.00
6672;DHT22;3372;48.690;12.362;2022-12-07T15:12:04;6.80;42.10
6672;DHT22;3372;48.690;12.362;2022-12-07T15:14:30;6.80;41.10
6672;DHT22;3372;48.690;12.362;2022-12-07T15:16:56;6.90;42.20
6672;DHT22;3372;48.690;12.362;2022-12-07T15:19:22;7.10;41.90
6672;DHT22;3372;48.690;12.362;2022-12-07T15:21:50;6.90;42.70
6672;DHT22;3372;48.690;12.362;2022-12-07T15:24:16;6.80;42.10
6672;DHT22;3372;48.690;12.362;2022-12-07T15:26:42;6.60;41.10
6672;DHT22;3372;48.690;12.362;2022-12-07T15:29:09;6.60;41.50
6672;DHT22;3372;48.690;12.362;2022-12-07T15:31:35;6.60;42.00
6672;DHT22;3372;48.690;12.362;2022-12-07T15:34:01;6.60;42.00
6672;DHT22;3372;48.690;12.362;2022-12-07T15:36:28;6.70;42.30
6672;DHT22;3372;48.690;12.362;2022-12-07T15:38:55;6.60;42.10
6672;DHT22;3372;48.690;12.362;2022-12-07T15:41:20;6.60;41.90
6672;DHT22;3372;48.690;12.362;2022-12-07T15:43:46;6.60;41.70
6672;DHT22;3372;48.690;12.362;2022-12-07T15:46:32;6.60;42.00
6672;DHT22;3372;48.690;12.362;2022-12-07T15:48:58;6.60;42.00
6672;DHT22;3372;48.690;12.362;2022-12-07T15:51:24;6.70;42.00
6672;DHT22;3372;48.690;12.362;2022-12-07T15:53:49;6.70;41.80
6672;DHT22;3372;48.690;12.362;2022-12-07T15:56:15;6.70;42.10
6672;DHT22;3372;48.690;12.362;2022-12-07T15:58:41;6.60;41.10
6672;DHT22;3372;48.690;12.362;2022-12-07T16:01:14;6.60;41.90
6672;DHT22;3372;48.690;12.362;2022-12-07T16:03:40;6.70;42.00
6672;DHT22;3372;48.690;12.362;2022-12-07T16:06:06;6.70;41.70
6672;DHT22;3372;48.690;12.362;2022-12-07T16:08:32;6.70;40.50
6672;DHT22;3372;48.690;12.362;2022-12-07T16:10:57;6.80;42.20
6672;DHT22;3372;48.690;12.362;2022-12-07T16:13:23;6.40;41.70
6672;DHT22;3372;48.690;12.362;2022-12-07T16:15:49;6.70;42.20
6672;DHT22;3372;48.690;12.362;2022-12-07T16:18:14;6.60;42.20
6672;DHT22;3372;48.690;12.362;2022-12-07T16:20:40;6.90;42.00
6672;DHT22;3372;48.690;12.362;2022-12-07T16:23:06;6.70;41.90
6672;DHT22;3372;48.690;12.362;2022-12-07T16:25:32;6.70;42.00
6672;DHT22;3372;48.690;12.362;2022-12-07T16:27:58;6.90;40.50
6672;DHT22;3372;48.690;12.362;2022-12-07T16:30:24;6.60;42.00
6672;DHT22;3372;48.690;12.362;2022-12-07T16:32:51;6.60;41.70
6672;DHT22;3372;48.690;12.362;2022-12-07T16:35:16;6.80;41.60
6672;DHT22;3372;48.690;12.362;2022-12-07T16:37:42;6.70;42.10
6672;DHT22;3372;48.690;12.362;2022-12-07T16:40:09;6.60;41.40
6672;DHT22;3372;48.690;12.362;2022-12-07T16:42:35;6.40;41.90
6672;DHT22;3372;48.690;12.362;2022-12-07T16:45:02;6.50;42.10
6672;DHT22;3372;48.690;12.362;2022-12-07T16:47:28;6.30;41.80
6672;DHT22;3372;48.690;12.362;2022-12-07T16:49:53;6.30;41.40
6672;DHT22;3372;48.690;12.362;2022-12-07T16:52:20;6.50;41.90
6672;DHT22;3372;48.690;12.362;2022-12-07T16:54:47;6.60;42.00
6672;DHT22;3372;48.690;12.362;2022-12-07T16:57:12;6.20;41.60
6672;DHT22;3372;48.690;12.362;2022-12-07T16:59:38;6.60;42.60
6672;DHT22;3372;48.690;12.362;2022-12-07T17:02:04;6.40;41.90
6672;DHT22;3372;48.690;12.362;2022-12-07T17:04:32;6.40;41.70
6672;DHT22;3372;48.690;12.362;2022-12-07T17:06:58;6.40;42.20
6672;DHT22;3372;48.690;12.362;2022-12-07T17:09:24;6.40;41.90
6672;DHT22;3372;48.690;12.362;2022-12-07T17:11:50;6.60;41.60
6672;DHT22;3372;48.690;12.362;2022-12-07T17:14:15;6.50;41.90
6672;DHT22;3372;48.690;12.362;2022-12-07T17:16:59;6.50;41.70
6672;DHT22;3372;48.690;12.362;2022-12-07T17:19:25;6.40;41.80
6672;DHT22;3372;48.690;12.362;2022-12-07T17:21:51;6.30;41.20
6672;DHT22;3372;48.690;12.362;2022-12-07T17:24:17;6.60;42.10
6672;DHT22;3372;48.690;12.362;2022-12-07T17:26:44;6.50;42.00
6672;DHT22;3372;48.690;12.362;2022-12-07T17:29:12;6.40;41.70
6672;DHT22;3372;48.690;12.362;2022-12-07T17:31:39;6.60;41.80
6672;DHT22;3372;48.690;12.362;2022-12-07T17:34:10;6.60;41.70
6672;DHT22;3372;48.690;12.362;2022-12-07T17:36:37;6.40;41.00
6672;DHT22;3372;48.690;12.362;2022-12-07T17:39:07;6.40;42.50
6672;DHT22;3372;48.690;12.362;2022-12-07T17:41:32;6.40;41.30
6672;DHT22;3372;48.690;12.362;2022-12-07T17:44:18;6.40;41.80
6672;DHT22;3372;48.690;12.362;2022-12-07T17:46:46;6.50;41.50
6672;DHT22;3372;48.690;12.362;2022-12-07T17:49:12;6.10;41.50
6672;DHT22;3372;48.690;12.362;2022-12-07T17:51:38;6.30;41.90
6672;DHT22;3372;48.690;12.362;2022-12-07T17:54:22;6.30;41.60
6672;DHT22;3372;48.690;12.362;2022-12-07T17:56:48;6.20;41.60
6672;DHT22;3372;48.690;12.362;2022-12-07T17:59:14;6.40;42.10
6672;DHT22;3372;48.690;12.362;2022-12-07T18:01:41;6.50;42.00
6672;DHT22;3372;48.690;12.362;2022-12-07T18:04:07;6.30;42.00
6672;DHT22;3372;48.690;12.362;2022-12-07T18:06:33;6.20;41.70
6672;DHT22;3372;48.690;12.362;2022-12-07T18:08:59;6.40;42.10
6672;DHT22;3372;48.690;12.362;2022-12-07T18:11:25;6.50;42.40
6672;DHT22;3372;48.690;12.362;2022-12-07T18:13:51;6.30;42.20
6672;DHT22;3372;48.690;12.362;2022-12-07T18:16:19;6.30;42.70
6672;DHT22;3372;48.690;12.362;2022-12-07T18:18:46;6.50;41.90
6672;DHT22;3372;48.690;12.362;2022-12-07T18:21:18;6.30;42.10
6672;DHT22;3372;48.690;12.362;2022-12-07T18:23:46;6.50;42.40
6672;DHT22;3372;48.690;12.362;2022-12-07T18:26:14;6.50;42.40
6672;DHT22;3372;48.690;12.362;2022-12-07T18:28:44;6.50;42.40
6672;DHT22;3372;48.690;12.362;2022-12-07T18:31:09;6.20;41.60
6672;DHT22;3372;48.690;12.362;2022-12-07T18:33:35;6.30;42.30
6672;DHT22;3372;48.690;12.362;2022-12-07T18:36:02;6.30;42.30